CheckWX is a tool to help pilots better visualize weather data.  It is not intended as a substitute for an official pre-flight weather briefing.

15:35:35 UTC

KSPF METAR
Black Hills-Clyde Ice Field Airport
Spearfish, South Dakota, USA
Current

21 mins ago

KSPF 201515Z AUTO 11014KT 10SM OVC044 03/02 A2998 RMK AO2
Observed
May-20 @ 15:15 UTC
Wind
  • 110° at 14 KTS
Visibility
10 SM
Flight Rules
VFR
Cloud Levels
  • Overcast at 4,400' AGL
Temperature
C / 37°F
Dewpoint
C / 36°F
Humidity
93%
Altimeter
29.98" Hg
Pressure
1015.22 hPa
Previous

41 mins ago

KSPF 201455Z AUTO 10012KT 10SM OVC041 03/02 A2999 RMK AO2
Observed
May-20 @ 14:55 UTC
Wind
  • 100° at 12 KTS
Visibility
10 SM
Flight Rules
VFR
Cloud Levels
  • Overcast at 4,100' AGL
Temperature
C / 37°F
Dewpoint
C / 36°F
Humidity
93%
Altimeter
29.99" Hg
Pressure
1015.62 hPa
Previous

1 hour ago

KSPF 201435Z AUTO 10011KT 10SM OVC043 03/02 A2998 RMK AO2
Observed
May-20 @ 14:35 UTC
Wind
  • 100° at 11 KTS
Visibility
10 SM
Flight Rules
VFR
Cloud Levels
  • Overcast at 4,300' AGL
Temperature
C / 37°F
Dewpoint
C / 36°F
Humidity
93%
Altimeter
29.98" Hg
Pressure
1015.22 hPa